createdAt,value
2018-07-23T00:00:31.522Z,976.69
2018-07-23T00:01:31.442Z,976.68
2018-07-23T00:02:31.376Z,976.68
2018-07-23T00:03:31.296Z,976.72
2018-07-23T00:04:31.234Z,976.73
2018-07-23T00:05:31.153Z,976.71
2018-07-23T00:06:31.084Z,976.72
2018-07-23T00:07:31.011Z,976.73
2018-07-23T00:08:30.939Z,976.69
2018-07-23T00:09:30.862Z,976.72
2018-07-23T00:10:30.792Z,976.73
2018-07-23T00:11:30.714Z,976.70
2018-07-23T00:12:30.647Z,976.71
2018-07-23T00:13:30.569Z,976.70
2018-07-23T00:14:31.505Z,976.69
2018-07-23T00:15:30.423Z,976.70
2018-07-23T00:16:30.358Z,976.68
2018-07-23T00:17:30.281Z,976.68
2018-07-23T00:18:30.210Z,976.69
2018-07-23T00:19:30.128Z,976.71
2018-07-23T00:20:30.066Z,976.68
2018-07-23T00:21:29.987Z,976.69
2018-07-23T00:22:29.938Z,976.68
2018-07-23T00:23:29.838Z,976.68
2018-07-23T00:24:29.774Z,976.66
2018-07-23T00:25:29.693Z,976.68
2018-07-23T00:26:29.626Z,976.68
2018-07-23T00:27:29.556Z,976.64
2018-07-23T00:28:29.487Z,976.65
2018-07-23T00:29:29.403Z,976.67
2018-07-23T00:30:29.333Z,976.62
2018-07-23T00:31:29.254Z,976.62
2018-07-23T00:32:29.186Z,976.62
2018-07-23T00:33:29.109Z,976.63
2018-07-23T00:34:29.046Z,976.63
2018-07-23T00:35:28.964Z,976.64
2018-07-23T00:36:28.898Z,976.63
2018-07-23T00:37:28.815Z,976.60
2018-07-23T00:38:28.752Z,976.62
2018-07-23T00:39:28.670Z,976.62
2018-07-23T00:40:28.612Z,976.61
2018-07-23T00:41:28.525Z,976.65
2018-07-23T00:42:28.460Z,976.67
2018-07-23T00:43:28.383Z,976.66
2018-07-23T00:44:28.315Z,976.67
2018-07-23T00:45:28.237Z,976.69
2018-07-23T00:46:28.169Z,976.68
2018-07-23T00:47:28.088Z,976.67
2018-07-23T00:48:28.021Z,976.64
2018-07-23T00:49:27.942Z,976.64
2018-07-23T00:50:27.874Z,976.64
2018-07-23T00:51:27.795Z,976.63
2018-07-23T00:52:27.729Z,976.70
2018-07-23T00:53:27.649Z,976.67
2018-07-23T00:54:27.581Z,976.66
2018-07-23T00:55:27.502Z,976.65
2018-07-23T00:56:27.437Z,976.69
2018-07-23T00:57:27.356Z,976.70
2018-07-23T00:58:27.292Z,976.69
2018-07-23T00:59:27.209Z,976.70
2018-07-23T01:00:27.146Z,976.71
2018-07-23T01:01:27.066Z,976.69
2018-07-23T01:02:27.001Z,976.70
2018-07-23T01:03:27.849Z,976.68
2018-07-23T01:04:26.858Z,976.69
2018-07-23T01:05:26.770Z,976.71
2018-07-23T01:06:26.706Z,976.69
2018-07-23T01:07:26.625Z,976.71
2018-07-23T01:08:26.557Z,976.70
2018-07-23T01:09:26.479Z,976.69
2018-07-23T01:10:26.411Z,976.70
2018-07-23T01:11:26.333Z,976.69
2018-07-23T01:12:26.263Z,976.68
2018-07-23T01:13:26.190Z,976.69
2018-07-23T01:14:26.123Z,976.72
2018-07-23T01:15:26.041Z,976.68
2018-07-23T01:16:25.980Z,976.72
2018-07-23T01:17:25.903Z,976.73
2018-07-23T01:18:25.830Z,976.74
2018-07-23T01:19:25.749Z,976.77
2018-07-23T01:20:25.684Z,976.77
2018-07-23T01:21:25.604Z,976.75
2018-07-23T01:22:25.539Z,976.77
2018-07-23T01:23:25.457Z,976.80
2018-07-23T01:24:25.391Z,976.81
2018-07-23T01:25:25.314Z,976.82
2018-07-23T01:26:25.243Z,976.81
2018-07-23T01:27:25.165Z,976.78
2018-07-23T01:28:25.098Z,976.80
2018-07-23T01:29:25.020Z,976.79
2018-07-23T01:30:24.950Z,976.79
2018-07-23T01:31:24.872Z,976.80
2018-07-23T01:32:24.811Z,976.81
2018-07-23T01:33:24.729Z,976.80
2018-07-23T01:34:24.663Z,976.77
2018-07-23T01:35:24.578Z,976.81
2018-07-23T01:36:24.532Z,976.85
2018-07-23T01:37:24.433Z,976.84
2018-07-23T01:38:24.362Z,976.83
2018-07-23T01:39:24.290Z,976.84
2018-07-23T01:40:24.221Z,976.83
2018-07-23T01:41:24.144Z,976.85
2018-07-23T01:42:24.074Z,976.87
2018-07-23T01:43:23.995Z,976.83
2018-07-23T01:44:23.928Z,976.82
2018-07-23T01:45:23.848Z,976.86
2018-07-23T01:46:23.789Z,976.87
2018-07-23T01:47:23.701Z,976.89
2018-07-23T01:48:23.637Z,976.85
2018-07-23T01:49:23.558Z,976.87
2018-07-23T01:50:23.489Z,976.82
2018-07-23T01:51:23.410Z,976.85
2018-07-23T01:52:23.343Z,976.83
2018-07-23T01:53:23.264Z,976.84
2018-07-23T01:54:23.201Z,976.83
2018-07-23T01:55:23.125Z,976.76
2018-07-23T01:56:23.051Z,976.80
2018-07-23T01:57:22.978Z,976.82
2018-07-23T01:58:22.907Z,976.80
2018-07-23T01:59:22.825Z,976.79
2018-07-23T02:00:22.757Z,976.79
2018-07-23T02:01:22.681Z,976.81
2018-07-23T02:02:22.613Z,976.80
2018-07-23T02:03:22.536Z,976.82
2018-07-23T02:04:22.475Z,976.82
2018-07-23T02:05:22.385Z,976.82
2018-07-23T02:06:22.319Z,976.83
2018-07-23T02:07:22.238Z,976.80
2018-07-23T02:08:22.176Z,976.81
2018-07-23T02:09:22.095Z,976.80
2018-07-23T02:10:22.025Z,976.80
2018-07-23T02:11:21.950Z,976.78
2018-07-23T02:12:21.883Z,976.80
2018-07-23T02:13:21.803Z,976.75
2018-07-23T02:14:21.737Z,976.79
2018-07-23T02:15:21.653Z,976.80
2018-07-23T02:16:21.589Z,976.81
2018-07-23T02:17:21.518Z,976.79
2018-07-23T02:18:21.458Z,976.78
2018-07-23T02:19:21.368Z,976.77
2018-07-23T02:20:21.300Z,976.78
2018-07-23T02:21:21.214Z,976.81
2018-07-23T02:22:21.147Z,976.78
2018-07-23T02:23:21.069Z,976.75
2018-07-23T02:24:21.005Z,976.77
2018-07-23T02:25:20.926Z,976.75
2018-07-23T02:26:20.858Z,976.75
2018-07-23T02:27:20.777Z,976.74
2018-07-23T02:28:20.713Z,976.73
2018-07-23T02:29:20.629Z,976.74
2018-07-23T02:30:20.570Z,976.73
2018-07-23T02:31:20.484Z,976.72
2018-07-23T02:32:20.418Z,976.71
2018-07-23T02:33:20.337Z,976.70
2018-07-23T02:34:20.270Z,976.68
2018-07-23T02:35:20.191Z,976.70
2018-07-23T02:36:20.131Z,976.71
2018-07-23T02:37:20.044Z,976.70
2018-07-23T02:38:19.977Z,976.69
2018-07-23T02:39:19.902Z,976.72
2018-07-23T02:40:19.833Z,976.70
2018-07-23T02:41:19.756Z,976.71
2018-07-23T02:42:19.695Z,976.72
2018-07-23T02:43:19.608Z,976.75
2018-07-23T02:44:19.545Z,976.72
2018-07-23T02:45:19.464Z,976.69
2018-07-23T02:46:19.396Z,976.70
2018-07-23T02:47:19.314Z,976.70
2018-07-23T02:48:19.270Z,976.74
2018-07-23T02:49:19.169Z,976.72
2018-07-23T02:50:20.105Z,976.76
2018-07-23T02:51:19.019Z,976.76
2018-07-23T02:52:18.959Z,976.80
2018-07-23T02:53:18.875Z,976.80
2018-07-23T02:54:18.810Z,976.77
2018-07-23T02:55:18.733Z,976.78
2018-07-23T02:56:18.666Z,976.76
2018-07-23T02:57:18.583Z,976.78
2018-07-23T02:58:18.515Z,976.78
2018-07-23T02:59:18.435Z,976.77
2018-07-23T03:00:18.370Z,976.79
2018-07-23T03:01:18.291Z,976.79
2018-07-23T03:02:18.228Z,976.79
2018-07-23T03:03:18.144Z,976.77
2018-07-23T03:04:18.078Z,976.85
2018-07-23T03:05:18.004Z,976.88
2018-07-23T03:06:17.930Z,976.86
2018-07-23T03:07:17.849Z,976.89
2018-07-23T03:08:17.784Z,976.88
2018-07-23T03:09:17.702Z,976.86
2018-07-23T03:10:17.638Z,976.87
2018-07-23T03:11:17.553Z,976.84
2018-07-23T03:12:17.499Z,976.88
2018-07-23T03:13:17.412Z,976.89
2018-07-23T03:14:17.355Z,976.92
2018-07-23T03:15:17.264Z,976.91
2018-07-23T03:16:17.200Z,976.87
2018-07-23T03:17:17.118Z,976.89
2018-07-23T03:18:17.050Z,976.95
2018-07-23T03:19:16.969Z,976.94
2018-07-23T03:20:16.910Z,976.93
2018-07-23T03:21:16.824Z,976.93
2018-07-23T03:22:16.758Z,976.94
2018-07-23T03:23:16.682Z,976.93
2018-07-23T03:24:16.611Z,976.99
2018-07-23T03:25:16.533Z,976.95
2018-07-23T03:26:16.467Z,977.00
2018-07-23T03:27:16.383Z,976.99
2018-07-23T03:28:16.321Z,976.99
2018-07-23T03:29:16.237Z,976.96
2018-07-23T03:30:16.174Z,976.96
2018-07-23T03:31:16.093Z,976.96
2018-07-23T03:32:16.033Z,977.01
2018-07-23T03:33:15.946Z,977.01
2018-07-23T03:34:15.883Z,977.03
2018-07-23T03:35:15.801Z,977.04
2018-07-23T03:36:15.734Z,977.05
2018-07-23T03:37:15.655Z,977.05
2018-07-23T03:38:15.587Z,977.08
2018-07-23T03:39:15.506Z,977.10
2018-07-23T03:40:15.442Z,977.09
2018-07-23T03:41:15.362Z,977.10
2018-07-23T03:42:15.303Z,977.07
2018-07-23T03:43:15.890Z,977.10
2018-07-23T03:44:15.154Z,977.12
2018-07-23T03:45:15.067Z,977.11
2018-07-23T03:46:14.997Z,977.12
2018-07-23T03:47:14.918Z,977.14
2018-07-23T03:48:14.860Z,977.13
2018-07-23T03:49:14.773Z,977.17
2018-07-23T03:50:14.707Z,977.16
2018-07-23T03:51:14.629Z,977.17
2018-07-23T03:52:14.566Z,977.18
2018-07-23T03:53:14.481Z,977.20
2018-07-23T03:54:14.416Z,977.23
2018-07-23T03:55:14.333Z,977.21
2018-07-23T03:56:14.268Z,977.25
2018-07-23T03:57:14.188Z,977.28
2018-07-23T03:58:14.122Z,977.27
2018-07-23T03:59:14.040Z,977.31
2018-07-23T04:00:13.976Z,977.29
2018-07-23T04:01:13.895Z,977.32
2018-07-23T04:02:13.828Z,977.30
2018-07-23T04:03:13.746Z,977.29
2018-07-23T04:04:13.687Z,977.34
2018-07-23T04:05:13.600Z,977.31
2018-07-23T04:06:13.536Z,977.31
2018-07-23T04:07:13.460Z,977.31
2018-07-23T04:08:13.391Z,977.30
2018-07-23T04:09:13.309Z,977.27
2018-07-23T04:10:13.237Z,977.31
2018-07-23T04:11:13.162Z,977.32
2018-07-23T04:12:13.092Z,977.33
2018-07-23T04:13:13.014Z,977.37
2018-07-23T04:14:12.947Z,977.33
2018-07-23T04:15:12.869Z,977.35
2018-07-23T04:16:12.802Z,977.36
2018-07-23T04:17:12.720Z,977.35
2018-07-23T04:18:12.656Z,977.38
2018-07-23T04:19:12.573Z,977.40
2018-07-23T04:20:12.506Z,977.37
2018-07-23T04:21:12.426Z,977.39
2018-07-23T04:22:12.361Z,977.37
2018-07-23T04:23:12.281Z,977.40
2018-07-23T04:24:12.214Z,977.40
2018-07-23T04:25:12.137Z,977.40
2018-07-23T04:26:12.067Z,977.45
2018-07-23T04:27:11.987Z,977.40
2018-07-23T04:28:11.922Z,977.46
2018-07-23T04:29:11.841Z,977.44
2018-07-23T04:30:11.777Z,977.46
2018-07-23T04:31:11.697Z,977.44
2018-07-23T04:32:11.625Z,977.47
2018-07-23T04:33:11.552Z,977.48
2018-07-23T04:34:11.498Z,977.46
2018-07-23T04:35:11.402Z,977.50
2018-07-23T04:36:11.334Z,977.48
2018-07-23T04:37:11.253Z,977.47
2018-07-23T04:38:11.193Z,977.48
2018-07-23T04:39:11.111Z,977.49
2018-07-23T04:40:11.041Z,977.48
2018-07-23T04:41:10.967Z,977.48
2018-07-23T04:42:10.894Z,977.50
2018-07-23T04:43:10.814Z,977.49
2018-07-23T04:44:10.746Z,977.50
2018-07-23T04:45:10.669Z,977.49
2018-07-23T04:46:10.631Z,977.48
2018-07-23T04:47:10.521Z,977.50
2018-07-23T04:48:10.543Z,977.50
2018-07-23T04:49:10.411Z,977.51
2018-07-23T04:50:10.309Z,977.54
2018-07-23T04:51:10.230Z,977.54
2018-07-23T04:52:10.269Z,977.56
2018-07-23T04:53:10.084Z,977.61
2018-07-23T04:54:10.015Z,977.60
2018-07-23T04:55:09.938Z,977.63
2018-07-23T04:56:09.979Z,977.62
2018-07-23T04:57:09.795Z,977.62
2018-07-23T04:58:09.789Z,977.62
2018-07-23T04:59:09.652Z,977.66
2018-07-23T05:00:09.596Z,977.67
2018-07-23T05:01:09.503Z,977.64
2018-07-23T05:02:09.507Z,977.67
2018-07-23T05:03:09.353Z,977.68
2018-07-23T05:04:09.318Z,977.71
2018-07-23T05:05:09.203Z,977.72
2018-07-23T05:06:09.225Z,977.70
2018-07-23T05:07:09.058Z,977.72
2018-07-23T05:08:08.999Z,977.74
2018-07-23T05:09:08.912Z,977.73
2018-07-23T05:10:08.951Z,977.72
2018-07-23T05:11:08.765Z,977.74
2018-07-23T05:12:08.698Z,977.73
2018-07-23T05:13:08.617Z,977.73
2018-07-23T05:14:08.566Z,977.74
2018-07-23T05:15:08.473Z,977.73
2018-07-23T05:16:08.406Z,977.73
2018-07-23T05:17:08.326Z,977.70
2018-07-23T05:18:08.257Z,977.76
2018-07-23T05:19:08.183Z,977.74
2018-07-23T05:20:08.105Z,977.74
2018-07-23T05:21:08.031Z,977.78
2018-07-23T05:22:07.962Z,977.75
2018-07-23T05:23:07.882Z,977.76
2018-07-23T05:24:07.816Z,977.80
2018-07-23T05:25:07.740Z,977.82
2018-07-23T05:26:07.693Z,977.85
2018-07-23T05:27:07.591Z,977.82
2018-07-23T05:28:07.529Z,977.82
2018-07-23T05:29:07.449Z,977.87
2018-07-23T05:30:08.382Z,977.87
2018-07-23T05:31:07.302Z,977.88
2018-07-23T05:32:07.235Z,977.86
2018-07-23T05:33:07.156Z,977.93
2018-07-23T05:34:07.090Z,977.88
2018-07-23T05:35:07.005Z,977.93
2018-07-23T05:36:06.948Z,977.90
2018-07-23T05:37:06.863Z,977.90
2018-07-23T05:38:06.801Z,977.91
2018-07-23T05:39:06.719Z,977.93
2018-07-23T05:40:06.651Z,977.94
2018-07-23T05:41:06.566Z,977.95
2018-07-23T05:42:06.506Z,977.95
2018-07-23T05:43:06.423Z,977.94
2018-07-23T05:44:06.364Z,977.92
2018-07-23T05:45:06.280Z,977.96
2018-07-23T05:46:06.214Z,977.94
2018-07-23T05:47:06.131Z,977.93
2018-07-23T05:48:06.070Z,977.92
2018-07-23T05:49:05.990Z,977.96
2018-07-23T05:50:05.920Z,977.93
2018-07-23T05:51:05.841Z,977.99
2018-07-23T05:52:05.777Z,977.97
2018-07-23T05:53:05.696Z,977.98
2018-07-23T05:54:05.633Z,977.99
2018-07-23T05:55:05.553Z,977.97
2018-07-23T05:56:05.480Z,977.99
2018-07-23T05:57:05.406Z,977.99
2018-07-23T05:58:05.349Z,978.00
2018-07-23T05:59:05.258Z,977.98
2018-07-23T06:00:05.194Z,977.96
2018-07-23T06:01:05.114Z,977.99
2018-07-23T06:02:05.050Z,977.96
2018-07-23T06:03:04.968Z,977.95
2018-07-23T06:04:04.903Z,978.00
2018-07-23T06:05:04.823Z,977.97
2018-07-23T06:06:04.760Z,977.95
2018-07-23T06:07:04.743Z,977.98
2018-07-23T06:08:04.615Z,977.95
2018-07-23T06:09:04.534Z,977.97
2018-07-23T06:10:04.472Z,977.95
2018-07-23T06:11:04.387Z,978.01
2018-07-23T06:12:04.329Z,977.96
2018-07-23T06:13:04.250Z,977.98
2018-07-23T06:14:04.184Z,978.02
2018-07-23T06:15:04.098Z,977.98
2018-07-23T06:16:04.071Z,977.99
2018-07-23T06:17:03.952Z,978.01
2018-07-23T06:18:03.891Z,978.03
2018-07-23T06:19:03.811Z,978.08
2018-07-23T06:20:03.742Z,978.05
2018-07-23T06:21:03.669Z,978.07
2018-07-23T06:22:05.476Z,978.09
2018-07-23T06:23:03.517Z,978.06
2018-07-23T06:24:03.451Z,978.11
2018-07-23T06:25:03.380Z,978.11
2018-07-23T06:26:03.308Z,978.13
2018-07-23T06:27:03.225Z,978.11
2018-07-23T06:28:03.162Z,978.12
2018-07-23T06:29:03.087Z,978.10
2018-07-23T06:30:03.083Z,978.17
2018-07-23T06:31:02.940Z,978.09
2018-07-23T06:32:02.874Z,978.16
2018-07-23T06:33:02.794Z,978.10
2018-07-23T06:34:03.728Z,978.14
2018-07-23T06:35:02.648Z,978.14
2018-07-23T06:36:02.589Z,978.15
2018-07-23T06:37:02.504Z,978.19
2018-07-23T06:38:02.448Z,978.17
2018-07-23T06:39:02.362Z,978.17
2018-07-23T06:40:02.294Z,978.17
2018-07-23T06:41:02.216Z,978.15
2018-07-23T06:42:02.148Z,978.15
2018-07-23T06:43:02.072Z,978.15
2018-07-23T06:44:02.005Z,978.18
2018-07-23T06:45:01.929Z,978.15
2018-07-23T06:46:01.868Z,978.12
2018-07-23T06:47:01.780Z,978.19
2018-07-23T06:48:01.718Z,978.20
2018-07-23T06:49:01.639Z,978.22
2018-07-23T06:50:01.572Z,978.21
2018-07-23T06:51:01.494Z,978.22
2018-07-23T06:52:01.431Z,978.23
2018-07-23T06:53:01.351Z,978.25
2018-07-23T06:54:01.302Z,978.27
2018-07-23T06:55:01.209Z,978.25
2018-07-23T06:56:01.139Z,978.29
2018-07-23T06:57:01.062Z,978.24
2018-07-23T06:58:01.000Z,978.26
2018-07-23T06:59:00.918Z,978.28
2018-07-23T07:00:00.849Z,978.27
2018-07-23T07:01:00.775Z,978.27
2018-07-23T07:02:00.709Z,978.29
2018-07-23T07:03:00.630Z,978.26
2018-07-23T07:04:00.573Z,978.28
2018-07-23T07:05:00.486Z,978.29
2018-07-23T07:06:00.420Z,978.28
2018-07-23T07:07:00.342Z,978.29
2018-07-23T07:08:00.279Z,978.32
2018-07-23T07:09:00.198Z,978.29
2018-07-23T07:10:00.135Z,978.29
2018-07-23T07:11:00.077Z,978.27
2018-07-23T07:11:59.997Z,978.33
2018-07-23T07:12:59.912Z,978.30
2018-07-23T07:13:59.847Z,978.31
2018-07-23T07:14:59.768Z,978.30
2018-07-23T07:15:59.703Z,978.31
2018-07-23T07:16:59.629Z,978.32
2018-07-23T07:17:59.561Z,978.32
2018-07-23T07:18:59.482Z,978.33
2018-07-23T07:19:59.476Z,978.31
2018-07-23T07:20:59.337Z,978.33
2018-07-23T07:21:59.278Z,978.30
2018-07-23T07:22:59.950Z,978.32
2018-07-23T07:23:59.156Z,978.26
2018-07-23T07:24:59.054Z,978.28
2018-07-23T07:25:58.994Z,978.29
2018-07-23T07:26:58.910Z,978.27
2018-07-23T07:27:58.845Z,978.27
2018-07-23T07:28:58.774Z,978.28
2018-07-23T07:29:58.703Z,978.30
2018-07-23T07:30:58.624Z,978.29
2018-07-23T07:31:58.559Z,978.26
2018-07-23T07:32:58.481Z,978.25
2018-07-23T07:33:58.419Z,978.28
2018-07-23T07:34:58.339Z,978.31
2018-07-23T07:35:58.273Z,978.30
2018-07-23T07:36:58.199Z,978.30
2018-07-23T07:37:58.203Z,978.28
2018-07-23T07:38:58.054Z,978.30
2018-07-23T07:39:57.990Z,978.31
2018-07-23T07:40:57.914Z,978.30
2018-07-23T07:41:57.841Z,978.31
2018-07-23T07:42:57.838Z,978.30
2018-07-23T07:43:57.699Z,978.29
2018-07-23T07:44:57.745Z,978.29
2018-07-23T07:45:57.561Z,978.29
2018-07-23T07:46:57.563Z,978.31
2018-07-23T07:47:57.419Z,978.31
2018-07-23T07:48:57.470Z,978.31
2018-07-23T07:49:57.281Z,978.32
2018-07-23T07:50:58.298Z,978.33
2018-07-23T07:51:57.139Z,978.31
2018-07-23T07:52:57.089Z,978.32
2018-07-23T07:53:56.994Z,978.28
2018-07-23T07:54:57.001Z,978.32
2018-07-23T07:55:56.852Z,978.30
2018-07-23T07:56:56.804Z,978.28
2018-07-23T07:57:56.712Z,978.33
2018-07-23T07:58:56.721Z,978.31
2018-07-23T07:59:56.570Z,978.35
2018-07-23T08:00:56.527Z,978.33
2018-07-23T08:01:56.431Z,978.33
2018-07-23T08:02:56.515Z,978.32
2018-07-23T08:03:56.288Z,978.30
2018-07-23T08:04:56.252Z,978.32
2018-07-23T08:05:56.148Z,978.28
2018-07-23T08:06:56.161Z,978.28
2018-07-23T08:07:56.009Z,978.32
2018-07-23T08:08:55.967Z,978.33
2018-07-23T08:09:55.879Z,978.34
2018-07-23T08:10:55.883Z,978.36
2018-07-23T08:11:55.730Z,978.35
2018-07-23T08:12:55.688Z,978.34
2018-07-23T08:13:55.591Z,978.30
2018-07-23T08:14:56.625Z,978.32
2018-07-23T08:15:55.475Z,978.31
2018-07-23T08:16:55.408Z,978.34
2018-07-23T08:17:55.345Z,978.34
2018-07-23T08:18:55.319Z,978.34
2018-07-23T08:19:55.177Z,978.34
2018-07-23T08:20:55.129Z,978.34
2018-07-23T08:21:55.037Z,978.33
2018-07-23T08:22:55.042Z,978.33
2018-07-23T08:23:54.896Z,978.32
2018-07-23T08:24:54.850Z,978.35
2018-07-23T08:25:54.796Z,978.33
2018-07-23T08:26:54.759Z,978.35
2018-07-23T08:27:54.756Z,978.36
2018-07-23T08:28:54.671Z,978.39
2018-07-23T08:29:54.492Z,978.40
2018-07-23T08:30:54.478Z,978.38
2018-07-23T08:31:54.435Z,978.38
2018-07-23T08:32:54.390Z,978.38
2018-07-23T08:33:54.211Z,978.42
2018-07-23T08:34:54.199Z,978.39
2018-07-23T08:35:54.074Z,978.42
2018-07-23T08:36:54.115Z,978.39
2018-07-23T08:37:53.938Z,978.40
2018-07-23T08:38:53.924Z,978.42
2018-07-23T08:39:53.801Z,978.42
2018-07-23T08:40:53.870Z,978.44
2018-07-23T08:41:53.665Z,978.39
2018-07-23T08:42:53.648Z,978.39
2018-07-23T08:43:53.527Z,978.45
2018-07-23T08:44:53.605Z,978.46
2018-07-23T08:45:53.394Z,978.44
2018-07-23T08:46:53.363Z,978.46
2018-07-23T08:47:53.263Z,978.47
2018-07-23T08:48:53.282Z,978.50
2018-07-23T08:49:53.121Z,978.47
2018-07-23T08:50:53.084Z,978.48
2018-07-23T08:51:52.986Z,978.50
2018-07-23T08:52:52.998Z,978.50
2018-07-23T08:53:52.852Z,978.49
2018-07-23T08:54:52.804Z,978.48
2018-07-23T08:55:52.716Z,978.48
2018-07-23T08:56:52.723Z,978.46
2018-07-23T08:57:52.581Z,978.45
2018-07-23T08:58:52.629Z,978.47
2018-07-23T08:59:52.448Z,978.47
2018-07-23T09:00:52.438Z,978.41
2018-07-23T09:01:52.312Z,978.42
2018-07-23T09:02:52.348Z,978.41
2018-07-23T09:03:52.178Z,978.43
2018-07-23T09:04:52.153Z,978.41
2018-07-23T09:05:52.038Z,978.43
2018-07-23T09:06:52.068Z,978.39
2018-07-23T09:07:51.910Z,978.41
2018-07-23T09:08:51.938Z,978.39
2018-07-23T09:09:51.777Z,978.41
2018-07-23T09:10:51.791Z,978.39
2018-07-23T09:11:51.641Z,978.38
2018-07-23T09:12:51.600Z,978.39
2018-07-23T09:13:51.507Z,978.39
2018-07-23T09:14:51.510Z,978.37
2018-07-23T09:15:51.375Z,978.35
2018-07-23T09:16:51.425Z,978.39
2018-07-23T09:17:51.241Z,978.36
2018-07-23T09:18:51.229Z,978.38
2018-07-23T09:19:51.105Z,978.37
2018-07-23T09:20:51.151Z,978.39
2018-07-23T09:21:50.973Z,978.38
2018-07-23T09:22:50.950Z,978.39
2018-07-23T09:23:50.903Z,978.38
2018-07-23T09:24:50.861Z,978.37
2018-07-23T09:25:50.709Z,978.36
2018-07-23T09:26:50.673Z,978.36
2018-07-23T09:27:50.580Z,978.38
2018-07-23T09:28:50.582Z,978.39
2018-07-23T09:29:50.443Z,978.34
2018-07-23T09:30:50.492Z,978.38
2018-07-23T09:31:50.315Z,978.35
2018-07-23T09:32:50.301Z,978.38
2018-07-23T09:33:50.207Z,978.38
2018-07-23T09:34:50.213Z,978.35
2018-07-23T09:35:50.047Z,978.39
2018-07-23T09:36:50.024Z,978.38
2018-07-23T09:37:49.929Z,978.37
2018-07-23T09:38:49.934Z,978.40
2018-07-23T09:39:49.781Z,978.35
2018-07-23T09:40:49.745Z,978.32
2018-07-23T09:41:49.656Z,978.37
2018-07-23T09:42:50.678Z,978.37
2018-07-23T09:43:49.519Z,978.37
2018-07-23T09:44:49.569Z,978.37
2018-07-23T09:45:49.390Z,978.39
2018-07-23T09:46:49.381Z,978.41
2018-07-23T09:47:49.261Z,978.41
2018-07-23T09:48:49.290Z,978.43
2018-07-23T09:49:49.126Z,978.41
2018-07-23T09:50:49.095Z,978.42
2018-07-23T09:51:48.992Z,978.41
2018-07-23T09:52:49.076Z,978.44
2018-07-23T09:53:48.862Z,978.42
2018-07-23T09:54:48.816Z,978.42
2018-07-23T09:55:48.733Z,978.43
2018-07-23T09:56:48.730Z,978.41
2018-07-23T09:57:48.598Z,978.41
2018-07-23T09:58:48.640Z,978.40
2018-07-23T09:59:48.466Z,978.40
2018-07-23T10:00:48.444Z,978.39
2018-07-23T10:01:48.340Z,978.38
2018-07-23T10:02:48.361Z,978.40
2018-07-23T10:03:48.206Z,978.44
2018-07-23T10:04:48.165Z,978.40
2018-07-23T10:05:48.088Z,978.43
2018-07-23T10:06:48.078Z,978.42
2018-07-23T10:07:47.935Z,978.43
2018-07-23T10:08:47.991Z,978.40
2018-07-23T10:09:47.810Z,978.40
2018-07-23T10:10:47.907Z,978.42
2018-07-23T10:11:47.697Z,978.37
2018-07-23T10:12:47.710Z,978.35
2018-07-23T10:13:47.547Z,978.37
2018-07-23T10:14:47.624Z,978.35
2018-07-23T10:15:47.416Z,978.38
2018-07-23T10:16:47.435Z,978.36
2018-07-23T10:17:47.283Z,978.36
2018-07-23T10:18:47.359Z,978.36
2018-07-23T10:19:47.153Z,978.35
2018-07-23T10:20:47.149Z,978.36
2018-07-23T10:21:47.021Z,978.34
2018-07-23T10:22:47.071Z,978.37
2018-07-23T10:23:46.893Z,978.34
2018-07-23T10:24:46.977Z,978.32
2018-07-23T10:25:46.761Z,978.35
2018-07-23T10:26:46.885Z,978.31
2018-07-23T10:27:46.631Z,978.33
2018-07-23T10:28:46.701Z,978.31
2018-07-23T10:29:46.500Z,978.28
2018-07-23T10:30:46.609Z,978.33
2018-07-23T10:31:46.370Z,978.31
2018-07-23T10:32:46.418Z,978.30
2018-07-23T10:33:46.236Z,978.28
2018-07-23T10:34:46.327Z,978.28
2018-07-23T10:35:46.105Z,978.32
2018-07-23T10:36:46.241Z,978.29
2018-07-23T10:37:45.975Z,978.32
2018-07-23T10:38:45.948Z,978.28
2018-07-23T10:39:45.843Z,978.27
2018-07-23T10:40:45.859Z,978.30
2018-07-23T10:41:45.717Z,978.26
2018-07-23T10:42:45.667Z,978.30
2018-07-23T10:43:45.582Z,978.27
2018-07-23T10:44:45.580Z,978.28
2018-07-23T10:45:45.450Z,978.25
2018-07-23T10:46:45.490Z,978.25
2018-07-23T10:47:45.316Z,978.23
2018-07-23T10:48:45.402Z,978.23
2018-07-23T10:49:45.190Z,978.23
2018-07-23T10:50:45.313Z,978.25
2018-07-23T10:51:45.054Z,978.25
2018-07-23T10:52:45.123Z,978.27
2018-07-23T10:53:44.920Z,978.25
2018-07-23T10:54:45.042Z,978.24
2018-07-23T10:55:44.790Z,978.21
2018-07-23T10:56:44.852Z,978.18
2018-07-23T10:57:44.686Z,978.19
2018-07-23T10:58:44.654Z,978.15
2018-07-23T10:59:44.527Z,978.15
2018-07-23T11:00:44.577Z,978.21
2018-07-23T11:01:44.392Z,978.14
2018-07-23T11:02:44.477Z,978.17
2018-07-23T11:03:44.264Z,978.14
2018-07-23T11:04:44.287Z,978.11
2018-07-23T11:05:44.128Z,978.10
2018-07-23T11:06:44.195Z,978.07
2018-07-23T11:07:44.003Z,978.08
2018-07-23T11:08:44.023Z,978.08
2018-07-23T11:09:43.865Z,978.08
2018-07-23T11:10:43.916Z,978.08
2018-07-23T11:11:43.739Z,978.08
2018-07-23T11:12:43.799Z,978.08
2018-07-23T11:13:43.601Z,978.08
2018-07-23T11:14:43.740Z,978.10
2018-07-23T11:15:43.472Z,978.09
2018-07-23T11:16:43.549Z,978.06
2018-07-23T11:17:43.336Z,978.05
2018-07-23T11:18:43.464Z,978.05
2018-07-23T11:19:43.211Z,978.05
2018-07-23T11:20:43.272Z,978.09
2018-07-23T11:21:43.077Z,978.06
2018-07-23T11:22:43.078Z,978.05
2018-07-23T11:23:42.948Z,978.02
2018-07-23T11:24:45.620Z,978.03
2018-07-23T11:25:42.821Z,978.05
2018-07-23T11:26:42.953Z,978.07
2018-07-23T11:27:42.692Z,978.00
2018-07-23T11:28:42.814Z,978.05
2018-07-23T11:29:42.559Z,978.05
2018-07-23T11:30:42.625Z,978.00
2018-07-23T11:31:42.428Z,978.00
2018-07-23T11:32:42.535Z,978.02
2018-07-23T11:33:42.293Z,977.98
2018-07-23T11:34:42.343Z,977.96
2018-07-23T11:35:42.167Z,977.94
2018-07-23T11:36:42.158Z,977.97
2018-07-23T11:37:42.060Z,977.99
2018-07-23T11:38:42.081Z,977.97
2018-07-23T11:39:41.909Z,977.95
2018-07-23T11:40:41.874Z,977.95
2018-07-23T11:41:41.865Z,977.97
2018-07-23T11:42:41.827Z,977.92
2018-07-23T11:43:41.650Z,977.90
2018-07-23T11:44:41.702Z,977.95
2018-07-23T11:45:41.521Z,977.93
2018-07-23T11:46:41.506Z,977.86
2018-07-23T11:47:41.394Z,977.89
2018-07-23T11:48:42.544Z,977.90
2018-07-23T11:49:41.263Z,977.88
2018-07-23T11:50:46.305Z,977.87
2018-07-23T11:51:41.135Z,977.89
2018-07-23T11:52:42.269Z,977.87
2018-07-23T11:53:41.025Z,977.87
2018-07-23T11:54:41.151Z,977.79
2018-07-23T11:55:40.882Z,977.82
2018-07-23T11:56:43.032Z,977.83
2018-07-23T11:57:40.748Z,977.80
2018-07-23T11:58:40.870Z,977.84
2018-07-23T11:59:40.628Z,977.84
2018-07-23T12:00:40.680Z,977.85
2018-07-23T12:01:40.525Z,977.88
2018-07-23T12:02:40.592Z,977.88
2018-07-23T12:03:40.367Z,977.84
2018-07-23T12:04:40.627Z,977.90
2018-07-23T12:05:40.249Z,977.89
2018-07-23T12:06:40.314Z,977.91
2018-07-23T12:07:40.109Z,977.92
2018-07-23T12:08:40.221Z,977.88
2018-07-23T12:09:39.981Z,977.89
2018-07-23T12:10:40.141Z,977.88
2018-07-23T12:11:39.853Z,977.85
2018-07-23T12:12:39.842Z,977.86
2018-07-23T12:13:39.719Z,977.81
2018-07-23T12:14:39.756Z,977.81
2018-07-23T12:15:39.595Z,977.80
2018-07-23T12:16:39.671Z,977.79
2018-07-23T12:17:39.497Z,977.78
2018-07-23T12:18:39.577Z,977.80
2018-07-23T12:19:39.340Z,977.83
2018-07-23T12:20:39.487Z,977.79
2018-07-23T12:21:39.212Z,977.78
2018-07-23T12:22:39.360Z,977.79
2018-07-23T12:23:39.088Z,977.80
2018-07-23T12:24:39.026Z,977.79
2018-07-23T12:25:39.115Z,977.78
2018-07-23T12:26:38.902Z,977.75
2018-07-23T12:27:39.026Z,977.77